createdAt,value
2018-08-03T00:00:39.136Z,99.90
2018-08-03T00:03:07.034Z,99.90
2018-08-03T00:05:34.957Z,99.90
2018-08-03T00:08:02.754Z,99.90
2018-08-03T00:10:30.675Z,99.90
2018-08-03T00:12:58.579Z,99.90
2018-08-03T00:15:26.523Z,99.90
2018-08-03T00:17:54.415Z,99.90
2018-08-03T00:20:22.268Z,99.90
2018-08-03T00:22:50.208Z,99.90
2018-08-03T00:25:18.143Z,99.90
2018-08-03T00:27:46.072Z,99.90
2018-08-03T00:30:13.945Z,99.90
2018-08-03T00:32:41.830Z,99.90
2018-08-03T00:35:09.715Z,99.90
2018-08-03T00:37:37.613Z,99.90
2018-08-03T00:40:05.574Z,99.90
2018-08-03T00:42:33.534Z,99.90
2018-08-03T00:45:01.470Z,99.90
2018-08-03T00:47:29.302Z,99.90
2018-08-03T00:49:57.197Z,99.90
2018-08-03T00:52:25.090Z,99.90
2018-08-03T00:54:52.940Z,99.90
2018-08-03T00:57:20.789Z,99.90
2018-08-03T00:59:48.682Z,99.90
2018-08-03T01:02:16.466Z,99.90
2018-08-03T01:04:44.262Z,99.90
2018-08-03T01:07:12.192Z,99.90
2018-08-03T01:09:40.024Z,99.90
2018-08-03T01:12:07.851Z,99.90
2018-08-03T01:14:35.663Z,99.90
2018-08-03T01:17:03.496Z,99.90
2018-08-03T01:19:31.247Z,99.90
2018-08-03T01:21:59.141Z,99.90
2018-08-03T01:24:27.056Z,99.90
2018-08-03T01:26:54.859Z,99.90
2018-08-03T01:29:22.663Z,99.90
2018-08-03T01:31:50.490Z,99.90
2018-08-03T01:34:18.278Z,99.90
2018-08-03T01:36:46.103Z,99.90
2018-08-03T01:39:13.961Z,99.90
2018-08-03T01:41:41.883Z,99.90
2018-08-03T01:44:09.759Z,99.90
2018-08-03T01:46:37.555Z,99.90
2018-08-03T01:49:05.361Z,99.90
2018-08-03T01:51:33.172Z,99.90
2018-08-03T01:54:01.007Z,99.90
2018-08-03T01:56:28.822Z,99.90
2018-08-03T01:58:56.685Z,99.90
2018-08-03T02:01:24.508Z,99.90
2018-08-03T02:03:52.638Z,99.90
2018-08-03T02:06:20.503Z,99.90
2018-08-03T02:08:48.353Z,99.90
2018-08-03T02:11:16.259Z,99.90
2018-08-03T02:13:44.068Z,99.90
2018-08-03T02:16:11.901Z,99.90
2018-08-03T02:18:39.760Z,99.90
2018-08-03T02:21:07.568Z,99.90
2018-08-03T02:23:35.443Z,99.90
2018-08-03T02:26:03.278Z,99.90
2018-08-03T02:28:31.042Z,99.90
2018-08-03T02:30:58.959Z,99.90
2018-08-03T02:33:26.955Z,99.90
2018-08-03T02:35:54.931Z,99.90
2018-08-03T02:38:22.772Z,99.90
2018-08-03T02:40:50.668Z,99.90
2018-08-03T02:43:18.637Z,99.90
2018-08-03T02:48:14.556Z,99.90
2018-08-03T02:50:42.403Z,99.90
2018-08-03T02:53:10.269Z,99.90
2018-08-03T02:55:38.222Z,99.90
2018-08-03T02:58:06.126Z,99.90
2018-08-03T03:00:34.101Z,99.90
2018-08-03T03:03:01.994Z,99.90
2018-08-03T03:05:29.873Z,99.90
2018-08-03T03:07:57.717Z,99.90
2018-08-03T03:10:25.611Z,99.90
2018-08-03T03:12:53.523Z,99.90
2018-08-03T03:15:21.441Z,99.90
2018-08-03T03:17:49.310Z,99.90
2018-08-03T03:20:17.214Z,99.90
2018-08-03T03:22:45.067Z,99.90
2018-08-03T03:25:13.036Z,99.90
2018-08-03T03:27:40.935Z,99.90
2018-08-03T03:30:09.072Z,99.90
2018-08-03T03:32:37.010Z,99.90
2018-08-03T03:35:04.891Z,99.90
2018-08-03T03:37:32.815Z,99.90
2018-08-03T03:40:00.735Z,99.90
2018-08-03T03:42:28.623Z,99.90
2018-08-03T03:44:56.495Z,99.90
2018-08-03T03:47:24.365Z,99.90
2018-08-03T03:49:52.298Z,99.90
2018-08-03T03:52:20.129Z,99.90
2018-08-03T03:54:48.083Z,99.90
2018-08-03T03:57:15.908Z,99.90
2018-08-03T03:59:43.761Z,99.90
2018-08-03T04:04:39.446Z,99.90
2018-08-03T04:07:07.261Z,99.90
2018-08-03T04:09:35.094Z,99.90
2018-08-03T04:12:03.028Z,99.90
2018-08-03T04:14:30.918Z,99.90
2018-08-03T04:16:58.738Z,99.90
2018-08-03T04:19:26.533Z,99.90
2018-08-03T04:21:54.348Z,99.90
2018-08-03T04:24:22.169Z,99.90
2018-08-03T04:26:50.032Z,99.90
2018-08-03T04:29:17.895Z,99.90
2018-08-03T04:31:45.730Z,99.90
2018-08-03T04:34:13.555Z,99.90
2018-08-03T04:36:41.403Z,99.90
2018-08-03T04:39:09.239Z,99.90
2018-08-03T04:41:37.130Z,99.90
2018-08-03T04:44:04.910Z,99.90
2018-08-03T04:46:32.841Z,99.90
2018-08-03T04:49:00.640Z,99.90
2018-08-03T04:51:28.565Z,99.90
2018-08-03T04:53:56.503Z,99.90
2018-08-03T04:56:24.396Z,99.90
2018-08-03T04:58:52.882Z,99.90
2018-08-03T05:01:20.723Z,99.90
2018-08-03T05:03:48.511Z,99.90
2018-08-03T05:06:16.325Z,99.90
2018-08-03T05:08:44.262Z,99.90
2018-08-03T05:11:12.110Z,99.90
2018-08-03T05:13:39.920Z,99.90
2018-08-03T05:16:07.731Z,99.90
2018-08-03T05:18:35.548Z,99.90
2018-08-03T05:21:03.332Z,99.90
2018-08-03T05:23:31.134Z,99.90
2018-08-03T05:25:58.982Z,99.90
2018-08-03T05:28:26.884Z,99.90
2018-08-03T05:30:54.780Z,99.90
2018-08-03T05:33:22.514Z,99.90
2018-08-03T05:35:50.394Z,99.90
2018-08-03T05:38:18.221Z,99.90
2018-08-03T05:40:46.002Z,99.90
2018-08-03T05:45:41.638Z,99.90
2018-08-03T05:48:14.875Z,99.90
2018-08-03T05:50:42.747Z,99.90
2018-08-03T05:53:10.675Z,99.90
2018-08-03T05:55:38.562Z,99.90
2018-08-03T05:58:06.516Z,99.90
2018-08-03T06:00:34.363Z,99.90
2018-08-03T06:03:02.167Z,99.90
2018-08-03T06:05:30.114Z,99.90
2018-08-03T06:07:58.026Z,99.90
2018-08-03T06:10:25.895Z,99.90
2018-08-03T06:12:53.814Z,99.90
2018-08-03T06:15:21.603Z,99.90
2018-08-03T06:17:49.482Z,99.90
2018-08-03T06:20:17.327Z,99.90
2018-08-03T06:22:45.156Z,99.90
2018-08-03T06:25:13.016Z,99.90
2018-08-03T06:27:40.918Z,99.90
2018-08-03T06:30:10.361Z,99.90
2018-08-03T06:32:38.494Z,99.90
2018-08-03T06:35:06.674Z,99.90
2018-08-03T06:37:34.792Z,99.90
2018-08-03T06:40:02.792Z,99.90
2018-08-03T06:42:30.609Z,99.90
2018-08-03T06:44:58.493Z,99.90
2018-08-03T06:47:26.265Z,99.90
2018-08-03T06:49:54.142Z,99.90
2018-08-03T06:52:22.093Z,99.90
2018-08-03T06:54:50.191Z,99.90
2018-08-03T06:57:18.017Z,99.90
2018-08-03T06:59:45.979Z,99.90
2018-08-03T07:02:13.851Z,99.90
2018-08-03T07:04:41.748Z,99.90
2018-08-03T07:07:09.685Z,99.90
2018-08-03T07:09:37.677Z,99.90
2018-08-03T07:12:05.576Z,99.90
2018-08-03T07:14:33.511Z,99.90
2018-08-03T07:17:01.375Z,99.90
2018-08-03T07:19:29.324Z,99.90
2018-08-03T07:21:57.281Z,99.90
2018-08-03T07:24:25.235Z,99.90
2018-08-03T07:26:53.162Z,99.90
2018-08-03T07:29:21.043Z,99.90
2018-08-03T07:31:49.075Z,99.90
2018-08-03T07:34:17.035Z,99.90
2018-08-03T07:36:45.018Z,99.90
2018-08-03T07:39:12.979Z,99.90
2018-08-03T07:41:48.696Z,99.90
2018-08-03T07:44:43.980Z,99.90
2018-08-03T07:47:11.876Z,99.90
2018-08-03T07:49:39.779Z,99.90
2018-08-03T07:52:08.131Z,99.90
2018-08-03T07:57:42.396Z,99.90
2018-08-03T08:00:35.542Z,99.90
2018-08-03T08:03:03.411Z,99.90
2018-08-03T08:05:31.333Z,99.90
2018-08-03T08:07:59.273Z,99.90
2018-08-03T08:13:34.452Z,99.90
2018-08-03T08:16:02.457Z,99.90
2018-08-03T08:18:30.366Z,99.90
2018-08-03T08:20:58.335Z,99.90
2018-08-03T08:23:26.314Z,99.90
2018-08-03T08:26:04.081Z,99.90
2018-08-03T08:28:31.967Z,99.90
2018-08-03T08:30:59.871Z,99.90
2018-08-03T08:33:27.822Z,99.90
2018-08-03T08:36:07.914Z,99.90
2018-08-03T08:38:35.820Z,99.90
2018-08-03T08:41:03.737Z,99.90
2018-08-03T08:43:31.757Z,99.10
2018-08-03T08:45:59.686Z,99.60
2018-08-03T08:48:32.632Z,99.40
2018-08-03T08:51:00.522Z,99.10
2018-08-03T08:53:28.396Z,98.40
2018-08-03T08:55:56.239Z,97.50
2018-08-03T08:58:24.137Z,95.40
2018-08-03T09:00:52.141Z,94.20
2018-08-03T09:03:20.150Z,92.50
2018-08-03T09:05:48.046Z,85.70
2018-08-03T09:08:15.915Z,90.20
2018-08-03T09:10:43.837Z,90.30
2018-08-03T09:13:11.737Z,90.20
2018-08-03T09:15:39.569Z,83.90
2018-08-03T09:18:07.344Z,85.40
2018-08-03T09:20:35.278Z,86.10
2018-08-03T09:23:09.465Z,86.30
2018-08-03T09:25:37.290Z,87.20
2018-08-03T09:28:05.586Z,83.30
2018-08-03T09:30:41.431Z,85.10
2018-08-03T09:33:09.269Z,86.50
2018-08-03T09:38:05.202Z,85.30
2018-08-03T09:40:43.639Z,83.30
2018-08-03T09:43:12.002Z,78.00
2018-08-03T09:45:39.761Z,79.50
2018-08-03T09:48:07.520Z,81.60
2018-08-03T09:50:36.387Z,81.30
2018-08-03T09:53:04.235Z,79.40
2018-08-03T09:55:32.090Z,78.50
2018-08-03T09:57:59.957Z,77.30
2018-08-03T10:00:33.463Z,76.20
2018-08-03T10:03:01.238Z,76.90
2018-08-03T10:05:29.007Z,78.80
2018-08-03T10:07:56.903Z,78.30
2018-08-03T10:10:24.665Z,77.50
2018-08-03T10:12:52.589Z,75.40
2018-08-03T10:17:49.499Z,72.80
2018-08-03T10:20:17.511Z,67.90
2018-08-03T10:22:45.335Z,69.20
2018-08-03T10:25:13.118Z,68.60
2018-08-03T10:27:41.009Z,67.60
2018-08-03T10:30:08.879Z,66.80
2018-08-03T10:32:36.723Z,65.80
2018-08-03T10:35:05.376Z,63.90
2018-08-03T10:37:33.182Z,65.30
2018-08-03T10:40:00.977Z,66.20
2018-08-03T10:42:28.819Z,61.90
2018-08-03T10:44:56.637Z,62.70
2018-08-03T10:47:24.513Z,61.60
2018-08-03T10:49:52.520Z,60.90
2018-08-03T10:52:20.683Z,58.30
2018-08-03T10:54:48.760Z,58.90
2018-08-03T10:57:16.537Z,56.90
2018-08-03T10:59:44.406Z,59.00
2018-08-03T11:02:12.254Z,57.60
2018-08-03T11:04:40.277Z,58.30
2018-08-03T11:07:08.235Z,55.60
2018-08-03T11:09:36.059Z,55.10
2018-08-03T11:12:04.222Z,55.90
2018-08-03T11:14:32.051Z,55.30
2018-08-03T11:17:00.139Z,55.90
2018-08-03T11:19:27.872Z,57.80
2018-08-03T11:21:55.645Z,55.60
2018-08-03T11:24:23.429Z,56.70
2018-08-03T11:26:51.190Z,54.00
2018-08-03T11:29:19.003Z,55.00
2018-08-03T11:31:46.887Z,53.90
2018-08-03T11:34:14.754Z,52.10
2018-08-03T11:36:42.616Z,51.50
2018-08-03T11:39:11.246Z,51.40
2018-08-03T11:41:39.063Z,51.20
2018-08-03T11:44:07.195Z,49.70
2018-08-03T11:46:35.085Z,45.20
2018-08-03T11:49:02.957Z,44.80
2018-08-03T11:51:30.870Z,43.10
2018-08-03T11:53:58.702Z,42.60
2018-08-03T11:56:26.583Z,42.10
2018-08-03T11:58:54.360Z,41.60
2018-08-03T12:01:22.150Z,40.60
2018-08-03T12:03:49.936Z,39.70
2018-08-03T12:06:17.717Z,39.30
2018-08-03T12:08:45.580Z,39.20
2018-08-03T12:11:13.409Z,39.80
2018-08-03T12:13:41.302Z,39.70
2018-08-03T12:16:09.095Z,39.50
2018-08-03T12:18:36.880Z,38.20
2018-08-03T12:21:04.679Z,37.20
2018-08-03T12:23:32.514Z,37.10
2018-08-03T12:26:00.257Z,37.60
2018-08-03T12:28:36.622Z,38.60
2018-08-03T12:33:32.199Z,40.40
2018-08-03T12:36:00.092Z,40.90
2018-08-03T12:38:27.891Z,41.10
2018-08-03T12:40:55.690Z,41.10
2018-08-03T12:43:23.556Z,41.70
2018-08-03T12:45:51.390Z,41.70
2018-08-03T12:48:19.137Z,41.80
2018-08-03T12:50:46.980Z,42.40
2018-08-03T12:53:14.791Z,41.00
2018-08-03T12:55:42.578Z,39.60
2018-08-03T12:58:10.452Z,38.20
2018-08-03T13:00:38.295Z,37.10
2018-08-03T13:03:06.124Z,36.10
2018-08-03T13:05:33.939Z,35.50
2018-08-03T13:08:02.079Z,35.00
2018-08-03T13:10:29.730Z,34.80
2018-08-03T13:12:57.611Z,34.60
2018-08-03T13:15:25.392Z,34.70
2018-08-03T13:17:53.178Z,35.10
2018-08-03T13:20:20.976Z,35.20
2018-08-03T13:22:48.781Z,35.90
2018-08-03T13:25:16.611Z,36.70
2018-08-03T13:27:44.467Z,36.90
2018-08-03T13:30:12.215Z,35.80
2018-08-03T13:32:39.947Z,35.30
2018-08-03T13:35:07.696Z,35.30
2018-08-03T13:37:35.398Z,35.10
2018-08-03T13:40:03.132Z,34.10
2018-08-03T13:42:31.045Z,33.60
2018-08-03T13:44:58.894Z,33.50
2018-08-03T13:47:26.706Z,32.90
2018-08-03T13:49:54.516Z,32.50
2018-08-03T13:52:22.320Z,32.30
2018-08-03T13:54:50.181Z,32.20
2018-08-03T13:57:18.010Z,32.20
2018-08-03T13:59:45.943Z,32.20
2018-08-03T14:02:23.411Z,32.20
2018-08-03T14:04:51.423Z,31.30
2018-08-03T14:07:19.240Z,31.10
2018-08-03T14:09:47.117Z,31.20
2018-08-03T14:12:15.090Z,31.40
2018-08-03T14:14:42.866Z,32.20
2018-08-03T14:17:11.171Z,32.30
2018-08-03T14:19:39.700Z,32.80
2018-08-03T14:25:08.772Z,34.10
2018-08-03T14:27:36.601Z,34.80
2018-08-03T14:30:06.192Z,34.00
2018-08-03T14:35:01.824Z,33.00
2018-08-03T14:37:29.605Z,32.50
2018-08-03T14:39:57.367Z,31.40
2018-08-03T14:42:25.232Z,30.90
2018-08-03T14:44:53.037Z,31.20
2018-08-03T14:47:20.908Z,31.80
2018-08-03T14:49:48.761Z,32.70
2018-08-03T14:52:16.582Z,34.50
2018-08-03T14:54:44.444Z,34.60
2018-08-03T14:57:12.225Z,35.40
2018-08-03T14:59:40.083Z,35.90
2018-08-03T15:02:07.919Z,36.40
2018-08-03T15:04:35.708Z,36.90
2018-08-03T15:07:03.630Z,37.40
2018-08-03T15:09:31.542Z,37.80
2018-08-03T15:11:59.326Z,38.20
2018-08-03T15:14:27.155Z,38.20
2018-08-03T15:16:55.027Z,38.20
2018-08-03T15:19:22.894Z,38.10
2018-08-03T15:21:50.732Z,37.80
2018-08-03T15:24:18.616Z,36.40
2018-08-03T15:26:46.494Z,36.10
2018-08-03T15:29:14.335Z,35.40
2018-08-03T15:31:42.143Z,34.50
2018-08-03T15:34:09.954Z,33.60
2018-08-03T15:36:37.756Z,33.10
2018-08-03T15:39:08.623Z,33.10
2018-08-03T15:41:36.443Z,32.70
2018-08-03T15:44:04.232Z,32.70
2018-08-03T15:46:32.045Z,32.70
2018-08-03T15:48:59.883Z,32.40
2018-08-03T15:51:27.695Z,32.50
2018-08-03T15:53:55.587Z,33.30
2018-08-03T15:56:23.447Z,34.10
2018-08-03T15:58:51.271Z,34.50
2018-08-03T16:01:19.193Z,34.90
2018-08-03T16:03:47.065Z,35.00
2018-08-03T16:06:14.902Z,35.10
2018-08-03T16:08:42.734Z,35.20
2018-08-03T16:11:10.606Z,34.90
2018-08-03T16:13:38.557Z,35.00
2018-08-03T16:16:06.415Z,35.00
2018-08-03T16:18:34.299Z,34.90
2018-08-03T16:21:02.102Z,35.00
2018-08-03T16:23:29.987Z,35.00
2018-08-03T16:25:57.907Z,35.00
2018-08-03T16:28:25.798Z,35.40
2018-08-03T16:30:53.677Z,35.20
2018-08-03T16:33:21.545Z,35.50
2018-08-03T16:35:49.446Z,35.40
2018-08-03T16:38:17.315Z,35.40
2018-08-03T16:40:45.161Z,35.40
2018-08-03T16:43:13.018Z,35.40
2018-08-03T16:45:40.798Z,35.30
2018-08-03T16:48:08.551Z,35.70
2018-08-03T16:50:40.620Z,35.70
2018-08-03T16:53:08.556Z,35.70
2018-08-03T16:55:36.428Z,35.70
2018-08-03T16:58:04.323Z,36.00
2018-08-03T17:00:32.161Z,36.00
2018-08-03T17:03:00.083Z,36.50
2018-08-03T17:05:27.953Z,36.80
2018-08-03T17:07:55.834Z,37.00
2018-08-03T17:10:23.768Z,37.20
2018-08-03T17:12:51.633Z,37.40
2018-08-03T17:15:19.491Z,37.60
2018-08-03T17:17:47.406Z,37.80
2018-08-03T17:20:15.290Z,38.10
2018-08-03T17:22:43.169Z,38.10
2018-08-03T17:25:11.037Z,38.40
2018-08-03T17:27:38.962Z,38.50
2018-08-03T17:30:06.832Z,38.70
2018-08-03T17:32:34.744Z,38.90
2018-08-03T17:35:02.631Z,39.00
2018-08-03T17:37:30.495Z,39.30
2018-08-03T17:39:58.387Z,39.60
2018-08-03T17:42:26.289Z,39.90
2018-08-03T17:44:54.206Z,40.20
2018-08-03T17:47:22.099Z,40.70
2018-08-03T17:49:50.027Z,41.00
2018-08-03T17:52:17.894Z,41.10
2018-08-03T17:54:45.721Z,41.20
2018-08-03T17:57:13.554Z,41.30
2018-08-03T17:59:41.383Z,41.60
2018-08-03T18:02:09.232Z,41.90
2018-08-03T18:04:37.021Z,42.30
2018-08-03T18:07:04.822Z,42.70
2018-08-03T18:09:32.582Z,43.10
2018-08-03T18:12:00.440Z,43.80
2018-08-03T18:14:28.259Z,44.20
2018-08-03T18:16:56.120Z,44.70
2018-08-03T18:19:23.970Z,45.20
2018-08-03T18:21:51.859Z,45.20
2018-08-03T18:24:19.637Z,45.40
2018-08-03T18:26:47.559Z,45.80
2018-08-03T18:29:15.480Z,46.20
2018-08-03T18:31:43.211Z,46.80
2018-08-03T18:34:11.057Z,46.50
2018-08-03T18:36:38.863Z,46.80
2018-08-03T18:39:08.418Z,47.00
2018-08-03T18:41:36.479Z,47.30
2018-08-03T18:44:04.247Z,47.70
2018-08-03T18:46:32.070Z,47.80
2018-08-03T18:48:59.847Z,48.10
2018-08-03T18:51:27.709Z,48.40
2018-08-03T18:53:55.480Z,48.70
2018-08-03T18:56:23.319Z,49.20
2018-08-03T18:58:51.153Z,49.50
2018-08-03T19:01:18.944Z,50.00
2018-08-03T19:03:46.753Z,50.00
2018-08-03T19:06:14.523Z,50.30
2018-08-03T19:08:42.374Z,50.30
2018-08-03T19:11:10.195Z,50.50
2018-08-03T19:13:38.052Z,50.60
2018-08-03T19:16:05.943Z,50.80
2018-08-03T19:18:34.178Z,51.10
2018-08-03T19:21:01.973Z,51.40
2018-08-03T19:23:29.761Z,51.40
2018-08-03T19:25:57.628Z,51.70
2018-08-03T19:28:25.471Z,52.00
2018-08-03T19:30:53.337Z,52.10
2018-08-03T19:33:21.217Z,52.30
2018-08-03T19:35:49.066Z,52.90
2018-08-03T19:38:16.960Z,53.40
2018-08-03T19:40:44.847Z,53.80
2018-08-03T19:43:12.680Z,54.10
2018-08-03T19:45:40.580Z,54.40
2018-08-03T19:48:08.434Z,54.30
2018-08-03T19:50:36.192Z,54.60
2018-08-03T19:53:04.129Z,54.80
2018-08-03T19:55:32.022Z,54.90
2018-08-03T19:58:03.804Z,55.10
2018-08-03T20:00:31.652Z,55.10
2018-08-03T20:02:59.535Z,55.60
2018-08-03T20:05:27.465Z,56.50
2018-08-03T20:07:55.263Z,56.40
2018-08-03T20:10:34.990Z,56.70
2018-08-03T20:13:02.835Z,57.00
2018-08-03T20:15:30.728Z,57.20
2018-08-03T20:18:01.327Z,57.40
2018-08-03T20:20:29.272Z,57.50
2018-08-03T20:22:57.083Z,57.70
2018-08-03T20:27:52.773Z,58.30
2018-08-03T20:30:20.621Z,58.40
2018-08-03T20:32:50.671Z,58.50
2018-08-03T20:35:18.853Z,58.70
2018-08-03T20:37:46.783Z,58.90
2018-08-03T20:40:14.601Z,59.20
2018-08-03T20:42:42.427Z,59.40
2018-08-03T20:45:10.347Z,59.40
2018-08-03T20:47:38.348Z,59.80
2018-08-03T20:50:06.193Z,59.30
2018-08-03T20:52:34.125Z,58.90
2018-08-03T20:55:02.085Z,59.00
2018-08-03T20:57:29.936Z,59.00
2018-08-03T20:59:57.783Z,58.90
2018-08-03T21:02:25.615Z,59.00
2018-08-03T21:04:53.482Z,58.80
2018-08-03T21:07:21.356Z,58.80
2018-08-03T21:09:49.310Z,58.60
2018-08-03T21:12:17.198Z,58.50
2018-08-03T21:14:45.083Z,58.40
2018-08-03T21:17:12.968Z,58.40
2018-08-03T21:19:40.873Z,58.30
2018-08-03T21:22:08.825Z,58.00
2018-08-03T21:24:36.657Z,58.10
2018-08-03T21:27:04.875Z,58.00
2018-08-03T21:29:39.257Z,58.10
2018-08-03T21:32:07.216Z,58.40
2018-08-03T21:41:00.359Z,59.80
2018-08-03T21:43:28.201Z,60.30
2018-08-03T21:46:08.762Z,60.80
2018-08-03T21:48:36.666Z,61.10
2018-08-03T21:51:04.671Z,61.50
2018-08-03T21:53:35.849Z,61.80
2018-08-03T21:56:03.695Z,62.00
2018-08-03T21:58:31.568Z,62.30
2018-08-03T22:03:27.291Z,62.90
2018-08-03T22:05:55.166Z,63.30
2018-08-03T22:22:23.825Z,65.00
2018-08-03T22:24:52.410Z,65.30
2018-08-03T22:27:20.313Z,65.30
2018-08-03T22:29:48.219Z,65.30
2018-08-03T22:32:16.047Z,65.30
2018-08-03T22:34:43.777Z,65.40
2018-08-03T22:37:11.610Z,65.40
2018-08-03T22:39:39.490Z,65.30
2018-08-03T22:42:07.370Z,65.20
2018-08-03T22:44:35.212Z,65.50
2018-08-03T22:47:03.107Z,65.40
2018-08-03T22:49:30.990Z,65.60
2018-08-03T22:51:58.890Z,65.80
2018-08-03T22:54:26.706Z,66.00
2018-08-03T22:56:54.610Z,66.10
2018-08-03T22:59:22.519Z,66.20
2018-08-03T23:01:50.335Z,66.20
2018-08-03T23:04:18.104Z,66.30
2018-08-03T23:06:45.918Z,66.20
2018-08-03T23:09:13.844Z,66.30
2018-08-03T23:11:41.825Z,66.20
2018-08-03T23:14:09.725Z,66.00
2018-08-03T23:16:37.622Z,66.10
2018-08-03T23:19:05.514Z,66.30
2018-08-03T23:21:33.325Z,66.10
2018-08-03T23:24:01.156Z,65.90
2018-08-03T23:26:29.086Z,65.80
2018-08-03T23:28:56.952Z,65.80
2018-08-03T23:31:24.961Z,65.70
2018-08-03T23:33:52.826Z,65.60
2018-08-03T23:38:48.599Z,65.70
2018-08-03T23:41:16.502Z,65.70
2018-08-03T23:43:44.359Z,65.70
2018-08-03T23:46:13.040Z,65.70
2018-08-03T23:48:40.907Z,65.70
2018-08-03T23:51:08.751Z,65.60
2018-08-03T23:53:36.704Z,65.70
2018-08-03T23:56:04.535Z,65.80
2018-08-03T23:58:32.495Z,65.70
